首页
METAR-TAF:

METAR-TAF

机场 :

克卢日-纳波卡, 罗马尼亚

纬度: 46-47N, 经度: 023-34E, 海拔: 315米

当前天气观测

该预报发布于11分钟前的21:00 UTC
风速1节,风向多变
温度 4°C
湿度 93%
气压 1007 hPa
能見度: 5000
多云层高于5000英尺
轻雾

METAR: LRCL 142100Z VRB01KT 5000 BR BKN050 04/03 Q1007 R07/29//95

时间: 23:11 (21:11 UTC)

预报

该预报发布于1小时和11分钟前的20:00 UTC
预报有效从14日的 21点(UTC)到 15日的 06点(UTC)
风速4节,风向多变
能見度: 3000
多云层高于4000英尺
轻雾
成为
从 14日的 21点(UTC)到 14日的 23点(UTC)
能見度: 1500
多云层高于500英尺
轻雾
几率 30% :
短暂存在
从 15日的 00点(UTC)到 15日的 06点(UTC)
能見度: 0600
多云层高于100英尺

TAF: LRCL 142000Z 1421/1506 VRB04KT 3000 BR BKN040 BECMG 1421/1423 1500 BR BKN005 PROB30 TEMPO 1500/1506 0600 FG BKN001

超过4000个机场的气象观测和天气预报(METAR&TAF报告)。

可查询的气象台以黄色和红色小点在地图上表示。

将鼠标移到小点上方,可查看气象台名称。

然后点击查看天气观测和预报。

如需切换地图:点击带黑十字的绿色按钮放大地图;点击带横线的绿色按钮缩小地图;或者点击绿色箭头查看邻近地区的地图。


METAR-TAF: